Terminal Aerodrome Forecast
Issued by NWS Cleveland, OH

Home | Current Version | Previous Version | Text Only | Print | Product List | Glossary Off
Versions: 1 2 3 4 5 6 7 8 9 10 11 12 13 14 15 16 17 18 19 20 21 22 23 24 25 26 27 28 29 30 31

000
FTUS41 KCLE 202300
TAFCLE
TAF
KCLE 202340Z 2100/2206 22008KT 5SM -SHRA BR BKN015 OVC025
      TEMPO 2100/2103 3SM -SHRA BR SCT008 OVC012
     FM210400 27008KT 6SM BR VCSH OVC015
     FM210800 30010KT 5SM -DZ BR BKN008 OVC015
     FM211500 32012G20KT 6SM BR VCSH OVC015=

USA.gov is the U.S. government's official web portal to all federal, state and local government web resources and services.